Time;durP1;ratioP1;P1;durP2;ratioP2;P2;SDS_P1;SDS_P2;PMS_P1;PMS_P2;Temp;Humidity;BMP_temperature;BMP_pressure;BME280_temperature;BME280_humidity;BME280_pressure;Samples;Min_cycle;Max_cycle;Signal;HPM_P1;HPM_P2
2022/09/17 00:02:09;;;;;;;1.27;1.17;;;19.70;62.10;;;;;;4988734;28;20690;-83
2022/09/17 00:04:38;;;;;;;2.03;1.20;;;19.60;62.00;;;;;;4973232;28;20250;-83
2022/09/17 00:07:08;;;;;;;1.05;1.02;;;19.60;62.00;;;;;;4956989;28;20184;-83
2022/09/17 00:09:34;;;;;;;1.30;1.20;;;19.60;62.00;;;;;;4957163;28;20195;-83
2022/09/17 00:12:01;;;;;;;6.72;1.27;;;19.60;62.00;;;;;;4988904;28;20214;-83
2022/09/17 00:14:31;;;;;;;1.27;1.17;;;19.60;62.00;;;;;;4989287;28;20172;-83
2022/09/17 00:17:01;;;;;;;1.10;1.00;;;19.60;62.00;;;;;;4973109;28;20235;-83
2022/09/17 00:19:31;;;;;;;1.27;1.17;;;19.70;62.00;;;;;;4973238;28;20184;-82
2022/09/17 00:21:57;;;;;;;1.20;1.10;;;19.60;62.00;;;;;;4972616;28;20295;-83
2022/09/17 00:24:27;;;;;;;1.50;1.40;;;19.60;62.00;;;;;;5005374;28;20168;-83
2022/09/17 00:27:01;;;;;;;1.20;1.10;;;19.60;62.00;;;;;;4957327;28;20176;-83
2022/09/17 00:29:35;;;;;;;3.40;1.00;;;19.60;62.00;;;;;;4988335;28;20194;-83
2022/09/17 00:32:01;;;;;;;1.33;1.23;;;19.60;62.00;;;;;;4961960;28;20235;-83
2022/09/17 00:34:27;;;;;;;1.23;1.13;;;19.70;62.10;;;;;;5015278;28;20225;-83
2022/09/17 00:37:01;;;;;;;1.55;1.25;;;19.60;62.00;;;;;;5048326;28;20160;-82
2022/09/17 00:39:27;;;;;;;1.42;1.25;;;19.60;62.00;;;;;;5003676;28;20233;-83
2022/09/17 00:41:56;;;;;;;1.10;1.00;;;19.60;62.00;;;;;;5011619;28;20567;-83
2022/09/17 00:44:38;;;;;;;1.10;1.00;;;19.60;62.00;;;;;;4963850;28;20245;-83
2022/09/17 00:47:25;;;;;;;1.13;1.02;;;19.60;62.00;;;;;;5012271;28;20182;-83
2022/09/17 00:50:04;;;;;;;1.35;1.25;;;19.60;62.10;;;;;;4999737;28;20183;-83
2022/09/17 00:52:39;;;;;;;1.00;1.00;;;19.60;62.00;;;;;;4982382;28;20263;-82
2022/09/17 00:55:25;;;;;;;1.20;1.10;;;19.60;62.10;;;;;;4980521;28;20185;-83
2022/09/17 00:57:57;;;;;;;1.10;1.00;;;19.60;62.10;;;;;;4999055;28;20194;-82
2022/09/17 01:00:29;;;;;;;1.23;1.13;;;19.60;62.20;;;;;;5012230;28;20248;-83
2022/09/17 01:02:56;;;;;;;1.10;1.00;;;19.50;62.20;;;;;;4963890;28;20190;-83
2022/09/17 01:05:46;;;;;;;1.20;1.10;;;19.50;62.10;;;;;;5011949;28;20274;-83
2022/09/17 01:08:36;;;;;;;1.35;1.25;;;19.50;62.10;;;;;;4982884;28;20178;-84
2022/09/17 01:11:15;;;;;;;1.45;1.15;;;19.60;62.20;;;;;;4998277;28;20189;-82
2022/09/17 01:14:07;;;;;;;1.20;1.10;;;19.60;62.20;;;;;;5012560;28;20633;-82
2022/09/17 01:16:53;;;;;;;1.23;1.13;;;19.50;62.20;;;;;;5046448;28;20178;-82
2022/09/17 01:19:50;;;;;;;1.50;1.02;;;19.60;62.20;;;;;;4967159;28;20186;-82
2022/09/17 01:22:33;;;;;;;1.02;0.93;;;19.60;62.20;;;;;;5031758;28;20623;-82
2022/09/17 01:25:14;;;;;;;1.27;1.17;;;19.60;62.30;;;;;;4965127;28;20211;-82
2022/09/17 01:28:06;;;;;;;1.23;1.13;;;19.60;62.30;;;;;;5028512;28;20227;-83
2022/09/17 01:31:00;;;;;;;1.27;1.17;;;19.50;62.20;;;;;;5011808;28;20163;-83
2022/09/17 01:33:50;;;;;;;1.13;1.00;;;19.50;62.20;;;;;;4987405;28;20202;-83
2022/09/17 01:36:57;;;;;;;1.30;1.20;;;19.50;62.30;;;;;;5028548;28;20234;-83
2022/09/17 01:39:29;;;;;;;1.52;1.27;;;19.50;62.30;;;;;;5038258;28;20225;-82
2022/09/17 01:42:03;;;;;;;1.20;1.10;;;19.50;62.30;;;;;;5014695;28;20201;-83
2022/09/17 01:44:37;;;;;;;2.72;1.20;;;19.50;62.20;;;;;;5066078;28;20628;-83
2022/09/17 01:47:15;;;;;;;1.13;0.90;;;19.50;62.30;;;;;;5047096;28;20168;-83
2022/09/17 01:49:47;;;;;;;1.40;1.30;;;19.50;62.30;;;;;;4983270;28;20178;-83
2022/09/17 01:52:13;;;;;;;0.93;0.93;;;19.50;62.30;;;;;;4997227;28;20173;-83
2022/09/17 01:54:49;;;;;;;1.20;1.10;;;19.50;62.30;;;;;;5030767;28;20158;-83
2022/09/17 01:57:24;;;;;;;1.10;1.00;;;19.50;62.30;;;;;;4981830;28;20232;-83
2022/09/17 02:00:01;;;;;;;1.15;1.05;;;19.50;62.30;;;;;;4998824;28;20196;-82
2022/09/17 02:02:35;;;;;;;1.20;1.10;;;19.50;62.30;;;;;;4997256;28;20204;-82
2022/09/17 02:05:06;;;;;;;1.23;1.13;;;19.50;62.40;;;;;;5047656;28;20169;-83
2022/09/17 02:07:33;;;;;;;1.30;1.20;;;19.50;62.40;;;;;;5046516;28;20168;-83
2022/09/17 02:10:11;;;;;;;0.95;0.95;;;19.50;62.40;;;;;;5047370;28;20155;-83
2022/09/17 02:12:44;;;;;;;1.20;1.10;;;19.50;62.30;;;;;;4982808;28;20178;-83
2022/09/17 02:15:19;;;;;;;1.67;1.30;;;19.50;62.40;;;;;;4998510;28;20190;-83
2022/09/17 02:18:14;;;;;;;1.00;1.00;;;19.50;62.50;;;;;;4982128;28;20181;-82
2022/09/17 02:20:44;;;;;;;1.17;1.08;;;19.50;62.50;;;;;;5031278;28;20201;-83
2022/09/17 02:23:15;;;;;;;1.30;1.20;;;19.50;62.50;;;;;;5031295;28;20177;-83
2022/09/17 02:26:03;;;;;;;1.52;1.00;;;19.50;63.30;;;;;;5030616;28;20162;-83
2022/09/17 02:28:42;;;;;;;1.27;1.17;;;19.50;62.50;;;;;;5031040;28;20571;-82
2022/09/17 02:31:08;;;;;;;1.30;1.20;;;19.50;62.50;;;;;;4998377;28;20644;-82
2022/09/17 02:33:39;;;;;;;1.50;1.13;;;19.50;62.50;;;;;;5030275;28;20162;-83
2022/09/17 02:36:09;;;;;;;0.98;0.98;;;19.50;62.50;;;;;;5013630;28;20177;-83
2022/09/17 02:38:36;;;;;;;1.25;1.00;;;19.50;62.60;;;;;;4992555;28;20707;-82
2022/09/17 02:41:14;;;;;;;1.40;1.30;;;19.50;62.50;;;;;;5010871;28;20202;-84
2022/09/17 02:43:49;;;;;;;1.33;1.23;;;19.50;62.60;;;;;;4978535;28;20224;-83
2022/09/17 02:46:34;;;;;;;1.10;1.00;;;19.40;62.50;;;;;;5027222;28;20228;-83
2022/09/17 02:49:31;;;;;;;1.50;1.08;;;19.50;62.60;;;;;;4964096;28;20245;-83
2022/09/17 02:52:21;;;;;;;1.23;1.13;;;19.50;62.60;;;;;;5026953;28;20203;-83
2022/09/17 02:55:01;;;;;;;0.80;0.80;;;19.50;62.60;;;;;;5026947;28;20222;-83
2022/09/17 02:57:37;;;;;;;0.80;0.80;;;19.50;62.60;;;;;;5029167;28;20527;-82
2022/09/17 03:00:13;;;;;;;1.20;1.10;;;19.50;62.60;;;;;;5030474;28;20187;-83
2022/09/17 03:02:55;;;;;;;1.20;1.10;;;19.50;62.60;;;;;;4966448;28;20181;-83
2022/09/17 03:05:25;;;;;;;1.10;1.10;;;19.50;62.60;;;;;;5014235;28;20209;-83
2022/09/17 03:07:58;;;;;;;1.33;1.20;;;19.50;62.70;;;;;;4965184;28;20552;-82
2022/09/17 03:10:32;;;;;;;0.90;0.90;;;19.40;62.60;;;;;;5013070;28;20205;-83
2022/09/17 03:12:58;;;;;;;1.27;1.17;;;19.40;62.70;;;;;;4966421;28;20205;-82
2022/09/17 03:15:24;;;;;;;1.20;1.10;;;19.50;62.70;;;;;;5014453;28;20177;-82
2022/09/17 03:17:50;;;;;;;1.20;1.10;;;19.40;62.60;;;;;;5030306;28;20185;-83
2022/09/17 03:20:20;;;;;;;1.10;1.00;;;19.50;62.70;;;;;;5014581;28;20198;-82
2022/09/17 03:22:50;;;;;;;1.08;1.08;;;19.40;62.60;;;;;;4997869;28;20178;-82
2022/09/17 03:25:24;;;;;;;1.10;1.00;;;19.40;62.60;;;;;;4997199;28;20205;-83
2022/09/17 03:27:56;;;;;;;1.20;1.10;;;19.50;62.60;;;;;;4997332;28;20190;-82
2022/09/17 03:30:31;;;;;;;1.20;1.10;;;19.50;62.70;;;;;;4964311;28;20224;-83
2022/09/17 03:32:58;;;;;;;1.30;1.10;;;19.50;62.70;;;;;;4980927;28;20190;-83
2022/09/17 03:35:24;;;;;;;1.67;1.20;;;19.40;63.50;;;;;;5030297;28;20246;-83
2022/09/17 03:37:55;;;;;;;1.10;1.00;;;19.50;62.70;;;;;;5030793;28;20186;-83
2022/09/17 03:40:22;;;;;;;1.30;1.10;;;19.40;62.70;;;;;;4982749;28;20351;-83
2022/09/17 03:42:51;;;;;;;1.10;1.10;;;19.40;62.60;;;;;;5033534;28;20197;-82
2022/09/17 03:45:19;;;;;;;1.20;1.10;;;19.40;62.70;;;;;;5016250;28;20203;-83
2022/09/17 03:47:55;;;;;;;1.00;0.90;;;19.40;62.70;;;;;;5033415;28;20238;-83
2022/09/17 03:50:25;;;;;;;0.98;0.95;;;19.50;62.70;;;;;;4984452;28;20206;-83
2022/09/17 03:52:56;;;;;;;1.25;1.15;;;19.40;62.70;;;;;;5016148;28;20182;-82
2022/09/17 03:55:25;;;;;;;1.48;1.30;;;19.50;62.70;;;;;;5033221;28;20246;-83
2022/09/17 03:57:56;;;;;;;1.27;1.08;;;19.50;62.80;;;;;;5016761;28;20184;-82
2022/09/17 04:00:22;;;;;;;1.20;1.10;;;19.40;62.70;;;;;;5016294;28;20244;-82
2022/09/17 04:02:53;;;;;;;1.35;1.25;;;19.40;62.70;;;;;;5032918;28;20166;-83
2022/09/17 04:05:19;;;;;;;1.20;1.10;;;19.50;62.80;;;;;;5015730;28;20178;-83
2022/09/17 04:07:50;;;;;;;1.20;1.10;;;19.40;62.70;;;;;;5048862;28;20638;-83
2022/09/17 04:10:24;;;;;;;0.98;0.95;;;19.50;62.70;;;;;;4998908;28;20269;-83
2022/09/17 04:12:50;;;;;;;1.40;0.90;;;19.40;62.80;;;;;;5015616;28;20181;-83
2022/09/17 04:15:21;;;;;;;1.00;1.00;;;19.40;62.70;;;;;;5033338;28;20166;-83
2022/09/17 04:18:03;;;;;;;1.17;0.95;;;19.40;62.70;;;;;;4998881;28;20189;-83
2022/09/17 04:20:29;;;;;;;0.90;0.90;;;19.40;62.80;;;;;;4983781;28;20217;-83
2022/09/17 04:23:00;;;;;;;0.90;0.90;;;19.40;62.70;;;;;;5032885;28;20178;-83
2022/09/17 04:25:26;;;;;;;1.20;1.10;;;19.40;62.70;;;;;;5015750;28;20229;-83
2022/09/17 04:28:00;;;;;;;1.00;0.80;;;19.40;62.70;;;;;;5032667;28;20224;-83
2022/09/17 04:30:31;;;;;;;1.13;1.00;;;19.40;62.90;;;;;;5031562;28;20186;-83
2022/09/17 04:33:11;;;;;;;0.90;0.90;;;19.40;62.90;;;;;;4983267;28;20182;-83
2022/09/17 04:35:37;;;;;;;0.90;0.90;;;19.40;62.80;;;;;;4983555;28;20224;-83
2022/09/17 04:38:03;;;;;;;1.05;0.98;;;19.40;62.90;;;;;;5049826;28;20158;-83
2022/09/17 04:40:36;;;;;;;0.90;0.90;;;19.40;62.80;;;;;;5031946;28;20241;-83
2022/09/17 04:43:06;;;;;;;1.25;1.13;;;19.40;62.90;;;;;;5015486;28;20189;-83
2022/09/17 04:45:32;;;;;;;1.20;1.00;;;19.40;62.80;;;;;;5016307;28;20178;-83
2022/09/17 04:47:58;;;;;;;1.20;1.10;;;19.40;62.90;;;;;;5048161;28;20529;-83
2022/09/17 04:50:24;;;;;;;1.13;1.02;;;19.40;62.90;;;;;;5032039;28;20180;-83
2022/09/17 04:52:54;;;;;;;1.02;0.98;;;19.40;62.90;;;;;;5032513;28;20162;-83
2022/09/17 04:55:20;;;;;;;1.10;1.10;;;19.40;62.90;;;;;;5015162;28;20232;-83
2022/09/17 04:57:52;;;;;;;1.10;1.00;;;19.40;62.80;;;;;;5049701;28;20158;-82
2022/09/17 05:00:23;;;;;;;1.17;1.08;;;19.40;63.70;;;;;;4983875;28;20205;-82
2022/09/17 05:02:57;;;;;;;1.05;1.05;;;19.40;62.90;;;;;;4998730;28;20181;-83
2022/09/17 05:05:26;;;;;;;0.95;0.95;;;19.40;62.90;;;;;;4999249;28;20265;-82
2022/09/17 05:07:57;;;;;;;1.20;1.10;;;19.40;62.90;;;;;;5015852;28;20186;-82
2022/09/17 05:10:28;;;;;;;1.58;1.00;;;19.40;62.80;;;;;;4984070;28;20679;-82
2022/09/17 05:12:58;;;;;;;1.02;0.95;;;19.40;62.90;;;;;;5015405;28;20182;-83
2022/09/17 05:15:24;;;;;;;1.10;1.00;;;19.40;62.80;;;;;;5014711;28;20667;-83
2022/09/17 05:17:55;;;;;;;1.20;1.10;;;19.40;62.90;;;;;;5047926;28;20200;-83
2022/09/17 05:20:26;;;;;;;0.77;0.77;;;19.50;63.00;;;;;;5014467;28;20221;-83
2022/09/17 05:22:56;;;;;;;0.80;0.80;;;19.40;62.90;;;;;;4998610;28;20224;-82
2022/09/17 05:25:31;;;;;;;1.00;1.00;;;19.40;62.90;;;;;;5015179;28;20198;-83
2022/09/17 05:28:06;;;;;;;1.10;1.00;;;19.40;62.90;;;;;;5015521;28;20177;-82
2022/09/17 05:30:32;;;;;;;0.98;0.93;;;19.40;62.90;;;;;;4999502;28;20174;-82
2022/09/17 05:33:01;;;;;;;0.93;0.93;;;19.40;62.90;;;;;;5030544;28;20172;-82
2022/09/17 05:35:34;;;;;;;0.73;0.73;;;19.40;62.90;;;;;;5032490;28;20158;-83
2022/09/17 05:38:03;;;;;;;1.10;1.00;;;19.40;62.80;;;;;;4999364;28;20189;-83
2022/09/17 05:40:32;;;;;;;1.25;1.10;;;19.50;62.70;;;;;;4996123;28;20226;-83
2022/09/17 05:43:00;;;;;;;0.80;0.80;;;19.40;62.60;;;;;;5012771;28;20186;-83
2022/09/17 05:45:32;;;;;;;1.15;1.00;;;19.40;62.80;;;;;;5012573;28;20190;-83
2022/09/17 05:48:03;;;;;;;1.00;1.00;;;19.50;62.80;;;;;;4961016;28;20187;-83
2022/09/17 05:50:30;;;;;;;1.20;1.00;;;19.50;62.70;;;;;;5006730;28;20257;-83
2022/09/17 05:53:04;;;;;;;0.85;0.85;;;19.50;62.80;;;;;;4957269;28;20244;-83
2022/09/17 05:55:31;;;;;;;0.80;0.80;;;19.40;62.80;;;;;;4990329;28;20183;-82
2022/09/17 05:57:58;;;;;;;1.23;0.93;;;19.50;63.60;;;;;;5023907;28;20154;-83
2022/09/17 06:00:33;;;;;;;0.90;0.90;;;19.40;62.90;;;;;;4974673;28;20753;-82
2022/09/17 06:03:00;;;;;;;0.90;0.90;;;19.40;62.90;;;;;;4979069;28;20178;-83
2022/09/17 06:05:33;;;;;;;0.98;0.98;;;19.50;62.70;;;;;;4980693;28;20179;-82
2022/09/17 06:08:00;;;;;;;1.23;1.00;;;19.50;62.90;;;;;;4993135;28;20175;-82
2022/09/17 06:10:31;;;;;;;1.20;1.10;;;19.50;62.70;;;;;;4991604;28;20269;-83
2022/09/17 06:12:58;;;;;;;1.13;1.02;;;19.50;63.00;;;;;;4974142;28;20201;-83
2022/09/17 06:15:29;;;;;;;0.80;0.80;;;19.50;62.90;;;;;;4957714;28;20182;-83
2022/09/17 06:17:56;;;;;;;0.90;0.90;;;19.50;62.80;;;;;;4989073;28;20198;-83
2022/09/17 06:20:25;;;;;;;1.88;0.93;;;19.50;62.80;;;;;;5023396;28;20212;-83
2022/09/17 06:22:56;;;;;;;0.75;0.70;;;19.50;62.70;;;;;;4975055;28;20629;-83
2022/09/17 06:25:22;;;;;;;1.05;0.95;;;19.50;62.90;;;;;;5007383;28;20167;-83
2022/09/17 06:27:49;;;;;;;1.02;0.93;;;19.50;62.70;;;;;;5008076;28;20173;-82
2022/09/17 06:30:26;;;;;;;1.00;0.95;;;19.50;62.60;;;;;;5013096;28;20174;-83
2022/09/17 06:32:52;;;;;;;1.20;1.10;;;19.50;62.60;;;;;;4963087;28;20178;-83
2022/09/17 06:35:21;;;;;;;10.38;1.25;;;19.60;62.60;;;;;;5005487;28;20491;-83
2022/09/17 06:37:47;;;;;;;1.02;1.02;;;19.50;62.80;;;;;;5003795;28;20166;-83
2022/09/17 06:40:22;;;;;;;2.80;1.00;;;19.50;62.60;;;;;;5019287;28;20328;-84
2022/09/17 06:42:55;;;;;;;2.00;1.10;;;19.50;62.50;;;;;;5007666;28;20271;-83
2022/09/17 06:45:24;;;;;;;2.47;1.00;;;19.50;62.60;;;;;;5008482;28;20289;-83
2022/09/17 06:48:02;;;;;;;1.75;1.00;;;19.60;62.50;;;;;;5022385;28;20571;-83
2022/09/17 06:50:37;;;;;;;0.95;0.90;;;19.50;62.60;;;;;;5005414;28;20227;-83
2022/09/17 06:53:08;;;;;;;0.80;0.80;;;19.50;62.50;;;;;;5004693;28;20601;-83
2022/09/17 06:55:37;;;;;;;1.13;0.98;;;19.50;62.40;;;;;;4973009;28;20185;-83
2022/09/17 06:58:04;;;;;;;0.77;0.77;;;19.50;62.50;;;;;;5004890;28;20687;-83
2022/09/17 07:00:31;;;;;;;0.90;0.80;;;19.60;62.50;;;;;;5005391;28;20300;-83
2022/09/17 07:03:02;;;;;;;1.10;1.00;;;19.50;62.50;;;;;;4988428;28;20194;-83
2022/09/17 07:05:30;;;;;;;2.20;0.90;;;19.50;62.50;;;;;;4988766;28;20184;-83
2022/09/17 07:08:01;;;;;;;2.17;0.90;;;19.60;62.50;;;;;;5005514;28;20182;-83
2022/09/17 07:10:28;;;;;;;1.10;1.00;;;19.60;62.50;;;;;;4973668;28;20243;-83
2022/09/17 07:12:58;;;;;;;1.67;1.00;;;19.50;62.50;;;;;;5038625;28;20154;-83
2022/09/17 07:15:24;;;;;;;1.73;0.90;;;19.50;62.40;;;;;;4988447;28;20182;-83
2022/09/17 07:18:06;;;;;;;1.27;0.98;;;19.60;62.30;;;;;;5021646;28;20252;-83
2022/09/17 07:20:37;;;;;;;0.90;0.90;;;19.60;62.10;;;;;;5006482;28;20206;-83
2022/09/17 07:23:09;;;;;;;0.70;0.70;;;19.60;62.00;;;;;;4989149;28;20189;-83
2022/09/17 07:25:40;;;;;;;1.52;1.00;;;19.60;61.80;;;;;;5004550;28;20186;-83
2022/09/17 07:28:06;;;;;;;0.90;0.60;;;19.60;62.60;;;;;;5022273;28;20181;-84
2022/09/17 07:30:32;;;;;;;0.77;0.77;;;19.60;61.80;;;;;;5024519;28;20166;-83
2022/09/17 07:33:01;;;;;;;0.90;0.90;;;19.60;61.80;;;;;;5036992;28;20620;-83
2022/09/17 07:35:27;;;;;;;1.38;0.73;;;19.60;61.70;;;;;;5019305;28;20180;-83
2022/09/17 07:37:53;;;;;;;0.88;0.75;;;19.60;61.60;;;;;;5036156;28;20237;-84
2022/09/17 07:40:19;;;;;;;0.47;0.47;;;19.60;61.50;;;;;;5036630;28;20304;-84
2022/09/17 07:42:46;;;;;;;0.70;0.70;;;19.60;61.40;;;;;;5020896;28;20636;-84
2022/09/17 07:45:12;;;;;;;0.63;0.52;;;19.50;61.30;;;;;;5024316;28;20161;-83
2022/09/17 07:47:43;;;;;;;0.70;0.70;;;19.60;61.30;;;;;;5041468;28;20157;-83
2022/09/17 07:50:12;;;;;;;1.20;0.63;;;19.50;61.30;;;;;;5007947;28;20178;-84
2022/09/17 07:52:47;;;;;;;0.60;0.60;;;19.60;61.30;;;;;;5007789;28;20217;-83
2022/09/17 07:55:20;;;;;;;1.55;0.60;;;19.60;61.20;;;;;;5007207;28;20178;-83
2022/09/17 07:57:50;;;;;;;0.60;0.60;;;19.60;61.00;;;;;;4991074;28;20182;-84
2022/09/17 08:00:16;;;;;;;0.60;0.60;;;19.60;61.00;;;;;;5023777;28;20173;-84
2022/09/17 08:02:42;;;;;;;1.13;0.60;;;19.60;61.00;;;;;;5024616;28;20163;-84
2022/09/17 08:05:11;;;;;;;2.05;0.63;;;19.60;61.00;;;;;;5040405;28;20170;-84
2022/09/17 08:07:48;;;;;;;0.60;0.60;;;19.60;60.90;;;;;;5006829;28;20224;-83
2022/09/17 08:10:20;;;;;;;0.70;0.60;;;19.60;60.90;;;;;;5006916;28;20182;-84
2022/09/17 08:12:47;;;;;;;0.70;0.70;;;19.60;60.90;;;;;;4978631;28;20216;-83
2022/09/17 08:15:39;;;;;;;0.50;0.50;;;19.60;60.90;;;;;;5008691;28;20249;-83
2022/09/17 08:18:09;;;;;;;1.17;0.60;;;19.60;60.80;;;;;;5023310;28;20154;-83
2022/09/17 08:20:38;;;;;;;0.63;0.63;;;19.50;61.00;;;;;;5008232;28;20222;-84
2022/09/17 08:23:05;;;;;;;0.70;0.70;;;19.50;60.90;;;;;;5014915;28;20182;-83
2022/09/17 08:25:34;;;;;;;1.65;0.60;;;19.60;60.90;;;;;;5036301;28;20158;-83
2022/09/17 08:28:00;;;;;;;0.90;0.70;;;19.50;60.90;;;;;;5034455;28;20260;-83
2022/09/17 08:30:31;;;;;;;0.70;0.70;;;19.60;61.00;;;;;;5019345;28;20169;-83
2022/09/17 08:32:57;;;;;;;0.70;0.60;;;19.60;61.00;;;;;;4998793;28;20188;-83
2022/09/17 08:35:25;;;;;;;0.77;0.77;;;19.60;61.00;;;;;;5016166;28;20201;-83
2022/09/17 08:37:56;;;;;;;0.63;0.63;;;19.50;60.90;;;;;;5033720;28;20200;-83
2022/09/17 08:40:23;;;;;;;1.25;0.75;;;19.60;60.90;;;;;;5011628;28;20226;-84
2022/09/17 08:42:55;;;;;;;0.63;0.63;;;19.60;60.90;;;;;;5028649;28;20213;-83
2022/09/17 08:45:22;;;;;;;0.57;0.57;;;19.60;60.90;;;;;;5030130;28;20143;-83
2022/09/17 08:47:54;;;;;;;0.50;0.50;;;19.60;60.90;;;;;;4996133;28;20171;-83
2022/09/17 08:50:33;;;;;;;0.73;0.73;;;19.60;60.70;;;;;;5029133;28;20309;-83
2022/09/17 08:53:39;;;;;;;0.60;0.60;;;19.60;60.80;;;;;;4964844;28;20255;-84
2022/09/17 08:56:17;;;;;;;0.70;0.70;;;19.60;60.80;;;;;;4993394;28;20261;-84
2022/09/17 08:59:07;;;;;;;0.70;0.60;;;19.60;61.80;;;;;;4989879;28;20183;-83
2022/09/17 09:01:52;;;;;;;0.60;0.50;;;19.50;60.80;;;;;;5013247;28;20196;-84
2022/09/17 09:04:31;;;;;;;0.70;0.70;;;19.60;60.50;;;;;;5027500;28;20568;-83
2022/09/17 09:07:06;;;;;;;0.95;0.70;;;19.60;60.80;;;;;;5012388;28;20533;-83
2022/09/17 09:09:40;;;;;;;0.70;0.57;;;19.60;60.70;;;;;;4978903;28;20591;-83
2022/09/17 09:12:15;;;;;;;0.60;0.60;;;19.60;60.80;;;;;;4961443;28;20178;-83
2022/09/17 09:14:53;;;;;;;0.70;0.70;;;19.60;60.90;;;;;;4952017;28;20569;-83
2022/09/17 09:17:22;;;;;;;0.50;0.50;;;19.50;60.70;;;;;;4954187;28;20191;-84
2022/09/17 09:19:51;;;;;;;0.95;0.70;;;19.50;60.60;;;;;;4935431;28;20248;-83
2022/09/17 09:22:46;;;;;;;0.73;0.73;;;19.60;60.70;;;;;;4953225;28;20255;-83
2022/09/17 09:25:23;;;;;;;0.70;0.70;;;19.60;60.70;;;;;;4952492;28;20184;-83
2022/09/17 09:28:09;;;;;;;0.60;0.60;;;19.50;60.50;;;;;;4969800;28;20157;-84
2022/09/17 09:30:51;;;;;;;0.60;0.60;;;19.60;60.40;;;;;;4955091;28;20255;-83
2022/09/17 09:33:24;;;;;;;0.88;0.77;;;19.60;60.40;;;;;;4953213;28;20192;-83
2022/09/17 09:35:51;;;;;;;0.60;0.60;;;19.60;60.40;;;;;;4950731;28;20180;-83
2022/09/17 09:38:31;;;;;;;0.93;0.73;;;19.60;60.40;;;;;;4967887;28;20240;-84
2022/09/17 09:41:09;;;;;;;0.90;0.80;;;19.70;60.40;;;;;;4935837;28;20212;-83
2022/09/17 09:44:10;;;;;;;1.38;0.70;;;19.70;60.40;;;;;;4970183;28;20212;-84
2022/09/17 09:47:01;;;;;;;0.70;0.70;;;19.60;60.50;;;;;;5023861;28;20285;-84
2022/09/17 09:49:40;;;;;;;0.68;0.68;;;19.60;61.30;;;;;;5011918;28;20175;-83
2022/09/17 09:52:40;;;;;;;0.63;0.60;;;19.60;60.40;;;;;;5045123;28;20159;-83
2022/09/17 09:55:25;;;;;;;1.05;0.70;;;19.60;60.30;;;;;;5010482;28;20186;-84
2022/09/17 09:58:20;;;;;;;0.77;0.70;;;19.60;60.20;;;;;;5010630;28;20178;-83
2022/09/17 10:00:46;;;;;;;0.60;0.60;;;19.70;60.40;;;;;;5043295;28;20223;-84
2022/09/17 10:03:22;;;;;;;1.67;0.60;;;19.60;60.20;;;;;;5004944;28;20166;-84
2022/09/17 10:05:52;;;;;;;0.68;0.68;;;19.60;60.00;;;;;;5003417;28;20186;-83
2022/09/17 10:08:17;;;;;;;1.02;0.70;;;19.70;60.00;;;;;;5007488;28;20220;-83
2022/09/17 10:11:20;;;;;;;0.70;0.50;;;19.70;60.00;;;;;;5025420;28;20630;-83
2022/09/17 10:13:47;;;;;;;0.65;0.65;;;19.70;59.90;;;;;;5040663;28;20202;-84
2022/09/17 10:16:17;;;;;;;0.60;0.60;;;19.70;59.80;;;;;;5006562;28;20167;-83
2022/09/17 10:18:44;;;;;;;1.13;0.55;;;19.70;59.80;;;;;;5009388;28;20533;-83
2022/09/17 10:21:22;;;;;;;0.60;0.60;;;19.70;59.80;;;;;;5025084;28;20193;-84
2022/09/17 10:23:54;;;;;;;0.57;0.57;;;19.70;59.70;;;;;;5009760;28;20162;-84
2022/09/17 10:26:22;;;;;;;2.67;0.60;;;19.70;59.80;;;;;;5006943;28;20190;-84
2022/09/17 10:28:53;;;;;;;0.68;0.68;;;19.70;60.00;;;;;;4981856;28;20172;-84
2022/09/17 10:31:22;;;;;;;0.57;0.57;;;19.70;59.90;;;;;;5004968;28;20164;-84
2022/09/17 10:33:56;;;;;;;0.68;0.68;;;19.80;60.00;;;;;;5007141;28;20212;-84
2022/09/17 10:36:36;;;;;;;1.73;0.70;;;19.80;60.10;;;;;;5007347;28;20172;-84
2022/09/17 10:39:29;;;;;;;0.60;0.60;;;19.80;59.90;;;;;;5007532;28;20222;-83
2022/09/17 10:41:56;;;;;;;0.80;0.70;;;19.70;60.00;;;;;;5022963;28;20282;-84
2022/09/17 10:44:23;;;;;;;2.00;0.70;;;19.80;59.80;;;;;;5005309;28;20158;-83
2022/09/17 10:46:50;;;;;;;1.20;0.57;;;19.80;59.70;;;;;;4998727;28;20173;-85
2022/09/17 10:49:45;;;;;;;0.70;0.63;;;19.80;59.80;;;;;;5003723;28;20202;-83
2022/09/17 10:52:26;;;;;;;0.80;0.60;;;19.80;59.80;;;;;;5014286;28;20198;-85
2022/09/17 10:55:12;;;;;;;0.50;0.50;;;19.80;59.70;;;;;;5007354;28;20156;-83
2022/09/17 10:57:58;;;;;;;2.03;0.70;;;19.80;59.50;;;;;;5010131;28;20542;-84
2022/09/17 11:00:26;;;;;;;3.30;0.65;;;19.80;59.50;;;;;;5006981;28;20178;-83
2022/09/17 11:03:16;;;;;;;1.05;0.57;;;19.80;59.50;;;;;;5005457;28;20210;-84
2022/09/17 11:06:02;;;;;;;0.60;0.60;;;19.80;59.60;;;;;;5005133;28;20163;-84
2022/09/17 11:08:33;;;;;;;1.23;0.50;;;19.80;59.60;;;;;;5002065;28;20282;-84
2022/09/17 11:11:06;;;;;;;1.15;0.77;;;19.80;59.60;;;;;;5003076;28;20181;-83
2022/09/17 11:13:53;;;;;;;0.75;0.70;;;19.80;59.70;;;;;;4999592;28;20155;-84
2022/09/17 11:16:34;;;;;;;1.70;0.95;;;19.80;59.60;;;;;;5020517;28;20246;-84
2022/09/17 11:19:33;;;;;;;1.35;0.93;;;19.80;59.50;;;;;;4990289;28;20172;-83
2022/09/17 11:22:10;;;;;;;1.75;0.70;;;19.80;59.50;;;;;;5012371;28;20219;-84
2022/09/17 11:24:55;;;;;;;2.28;0.90;;;19.80;59.30;;;;;;4991927;28;20179;-83
2022/09/17 11:27:36;;;;;;;0.63;0.63;;;19.80;59.30;;;;;;5005828;28;20232;-83
2022/09/17 11:30:12;;;;;;;0.70;0.70;;;19.90;59.20;;;;;;5023931;28;20226;-83
2022/09/17 11:32:53;;;;;;;2.97;0.95;;;19.80;59.10;;;;;;5019931;28;20193;-83
2022/09/17 11:35:25;;;;;;;0.73;0.60;;;19.80;59.10;;;;;;5003999;28;20156;-83
2022/09/17 11:38:10;;;;;;;0.98;0.88;;;19.70;59.10;;;;;;4996839;28;20170;-83
2022/09/17 11:40:49;;;;;;;0.80;0.80;;;19.80;59.20;;;;;;5015832;28;20249;-84
2022/09/17 11:43:24;;;;;;;0.70;0.70;;;19.80;59.10;;;;;;4984189;28;20179;-84
2022/09/17 11:46:12;;;;;;;0.90;0.90;;;19.80;59.10;;;;;;4983728;28;20188;-84
2022/09/17 11:48:46;;;;;;;0.90;0.80;;;19.80;59.00;;;;;;4986277;28;20168;-84
2022/09/17 11:51:21;;;;;;;1.20;0.90;;;19.80;59.00;;;;;;4939670;29;20194;-84
2022/09/17 11:54:32;;;;;;;1.35;0.75;;;19.80;58.90;;;;;;4907070;29;20209;-85
2022/09/17 12:05:21;;;;;;;0.80;0.80;;;19.80;58.50;;;;;;5142617;23;20238;-82
2022/09/17 12:08:09;;;;;;;1.23;0.73;;;19.90;58.60;;;;;;4976224;28;20171;-83
2022/09/17 12:10:55;;;;;;;1.65;0.65;;;19.90;58.40;;;;;;4992870;28;20626;-82
2022/09/17 12:13:39;;;;;;;0.70;0.70;;;19.80;58.30;;;;;;4993093;28;20578;-82
2022/09/17 12:16:11;;;;;;;0.85;0.80;;;19.80;58.20;;;;;;5005962;28;20155;-82
2022/09/17 12:18:48;;;;;;;1.17;0.63;;;19.90;58.30;;;;;;4972405;28;20168;-82
2022/09/17 12:21:20;;;;;;;1.05;0.60;;;19.90;58.20;;;;;;4939014;28;20235;-82
2022/09/17 12:23:53;;;;;;;2.33;0.63;;;19.90;58.00;;;;;;4966184;28;20179;-82
2022/09/17 12:26:33;;;;;;;0.50;0.50;;;19.90;58.00;;;;;;4988680;28;20162;-83
2022/09/17 12:29:09;;;;;;;2.50;0.82;;;19.90;58.00;;;;;;5005275;28;20156;-83
2022/09/17 12:31:50;;;;;;;0.63;0.60;;;19.90;58.00;;;;;;4994062;28;20530;-83
2022/09/17 12:34:56;;;;;;;1.45;0.60;;;19.90;57.90;;;;;;5005139;28;20166;-83
2022/09/17 12:37:31;;;;;;;1.02;0.70;;;19.90;57.90;;;;;;4977859;28;20249;-84
2022/09/17 12:40:37;;;;;;;1.45;0.60;;;19.90;57.90;;;;;;5004631;28;20151;-83
2022/09/17 12:43:36;;;;;;;0.90;0.70;;;19.90;58.10;;;;;;4979782;28;20183;-83
2022/09/17 12:46:36;;;;;;;0.80;0.80;;;19.90;58.20;;;;;;5007273;28;20250;-83
2022/09/17 12:49:24;;;;;;;0.73;0.65;;;19.90;58.30;;;;;;4975568;28;20643;-83
2022/09/17 12:51:54;;;;;;;0.73;0.68;;;19.90;58.40;;;;;;4984547;28;20166;-83
2022/09/17 12:54:56;;;;;;;0.60;0.60;;;19.90;58.60;;;;;;4984438;28;20611;-83
2022/09/17 12:57:57;;;;;;;0.50;0.50;;;19.90;58.90;;;;;;4983910;28;20594;-83
2022/09/17 13:00:32;;;;;;;0.60;0.60;;;19.90;59.20;;;;;;4954285;28;20183;-83
2022/09/17 13:03:22;;;;;;;0.55;0.55;;;19.90;59.40;;;;;;4967832;28;20293;-83
2022/09/17 13:06:08;;;;;;;0.68;0.68;;;19.90;59.70;;;;;;4963483;28;20268;-83
2022/09/17 13:08:56;;;;;;;0.70;0.70;;;19.90;59.90;;;;;;4967190;28;20682;-83
2022/09/17 13:11:53;;;;;;;0.73;0.63;;;19.90;60.10;;;;;;4950047;28;20180;-83
2022/09/17 13:14:43;;;;;;;0.70;0.63;;;19.90;60.30;;;;;;4952620;28;20248;-83
2022/09/17 13:17:23;;;;;;;0.60;0.60;;;19.90;60.60;;;;;;4947883;28;20191;-83
2022/09/17 13:20:07;;;;;;;0.60;0.60;;;19.80;60.70;;;;;;4950546;28;20184;-83
2022/09/17 13:22:43;;;;;;;0.70;0.70;;;19.90;60.90;;;;;;4965936;28;20208;-83
2022/09/17 13:25:12;;;;;;;2.03;0.70;;;19.90;61.00;;;;;;4948951;28;20175;-83
2022/09/17 13:27:43;;;;;;;0.63;0.63;;;19.90;61.00;;;;;;4963644;28;20266;-83
2022/09/17 13:30:15;;;;;;;0.57;0.57;;;19.80;61.00;;;;;;4947685;28;20195;-83
2022/09/17 13:32:45;;;;;;;0.70;0.68;;;19.90;61.10;;;;;;4931870;28;20175;-83
2022/09/17 13:35:50;;;;;;;0.47;0.45;;;19.90;61.10;;;;;;4947464;28;20184;-83
2022/09/17 13:38:22;;;;;;;0.70;0.70;;;19.90;61.20;;;;;;4968227;28;20184;-83